»·PEaware :: AAL445 KPHX-KGCN

AAL445 :: KPHX-KGCN

FLIGHT INFORMATION

Flight Status: Arrived
Operator:
American Airlines
More flights by this operator :: More flights under this callsign
Pilot: Anonymous 1753 (1753)
Aircraft: BOEING 767-200
(B762)
More flights by this aircraft type
Origin: KPHX Phoenix Sky Harbor Intl
United States
Destination: KGCN Grand Canyon Natl Park
United States
More flights between these airports :: More routes between these airports
Route: +SNOBL5 GCN
File this flight plan on PilotEdge
Remarks: PBN / A1B3B4B5C4D4O4 DOF / 170328 REG / N191CL EET / KZLA0022 OPR / AAL RMK / TCAS
Altitude:
(Current/Filed)
26,000ft
Speed:
(Current/Filed)
395kts
Departed: 27-Mar-17 07:54 PM
Arrived: 27-Mar-17 08:25 PM
Distance/Time
Traveled:
152nm/0:31
Distance/Time
To Go:
Arrived

Flight Plot

Page will automatically refresh every two minutes.

Flight plan parsing failed; only flown route is shown


Map Options




Map Legend


Flown Route
Filed Route
Departure Airport
Arrival Airport
Navaid (VOR, NDB)
Fix

Horizontal Profiles

Position Reports

Time Latitude Longitude Heading Altitude Ground
Speed
27-Mar-17 19:31 33.433652 -111.998686 322 1130ft 0kts
27-Mar-17 19:32 33.433652 -111.998686 322 1130ft 0kts
27-Mar-17 19:33 33.433652 -111.998686 322 1130ft 0kts
27-Mar-17 19:34 33.433652 -111.998686 322 1130ft 0kts
27-Mar-17 19:35 33.433652 -111.998686 322 1130ft 0kts
27-Mar-17 19:36 33.433652 -111.998686 322 1130ft 0kts
27-Mar-17 19:37 33.433652 -111.998686 322 1130ft 0kts
27-Mar-17 19:38 33.433652 -111.998686 322 1130ft 0kts
27-Mar-17 19:39 33.433652 -111.998686 322 1130ft 0kts
27-Mar-17 19:40 33.433652 -111.998686 322 1130ft 0kts
27-Mar-17 19:41 33.433524 -111.998566 315 1130ft 2kts
27-Mar-17 19:42 33.433587 -111.998186 178 1130ft 2kts
27-Mar-17 19:43 33.433704 -111.998199 173 1130ft 0kts
27-Mar-17 19:44 33.433704 -111.998199 173 1130ft 0kts
27-Mar-17 19:45 33.433704 -111.998199 173 1130ft 0kts
27-Mar-17 19:46 33.433704 -111.998199 173 1130ft 0kts
27-Mar-17 19:47 33.433704 -111.998199 173 1130ft 0kts
27-Mar-17 19:48 33.433704 -111.998199 173 1130ft 0kts
27-Mar-17 19:49 33.433704 -111.998199 173 1130ft 0kts
27-Mar-17 19:50 33.433699 -111.998199 173 1130ft 0kts
27-Mar-17 19:51 33.432147 -111.996117 90 1128ft 13kts
27-Mar-17 19:52 33.432116 -111.994459 88 1129ft 1kts
27-Mar-17 19:53 33.432123 -111.993839 92 1130ft 0kts
27-Mar-17 19:54 33.431038 -111.994214 274 1128ft 0kts
27-Mar-17 19:55 33.431483 -112.019587 269 2310ft 173kts
27-Mar-17 19:56 33.444501 -112.080496 312 7618ft 234kts
27-Mar-17 19:57 33.497064 -112.138312 314 7983ft 276kts
27-Mar-17 19:58 33.565672 -112.171381 356 7989ft 291kts
27-Mar-17 19:59 33.639026 -112.139240 42 10770ft 325kts
27-Mar-17 20:00 33.710374 -112.049969 44 13146ft 420kts
27-Mar-17 20:01 33.810449 -111.979276 6 17260ft 433kts
27-Mar-17 20:02 33.931950 -111.964460 3 20839ft 458kts
27-Mar-17 20:03 34.057887 -111.941468 4 20989ft 459kts
27-Mar-17 20:04 34.184269 -111.945777 349 22575ft 463kts
27-Mar-17 20:05 34.314028 -111.959882 349 25620ft 481kts
27-Mar-17 20:06 34.451335 -111.975010 349 26091ft 504kts
27-Mar-17 20:07 34.567005 -111.987761 349 26086ft 504kts
27-Mar-17 20:08 34.729492 -112.005784 349 26076ft 504kts
27-Mar-17 20:09 34.845221 -112.018757 349 26076ft 504kts
27-Mar-17 20:10 35.001642 -112.036364 349 26089ft 446kts
27-Mar-17 20:11 35.099795 -112.047532 349 25170ft 412kts
27-Mar-17 20:12 35.227634 -112.062040 349 21298ft 379kts
27-Mar-17 20:13 35.308770 -112.071237 349 16195ft 323kts
27-Mar-17 20:14 35.389406 -112.080134 349 13344ft 278kts
27-Mar-17 20:15 35.476486 -112.088831 350 10936ft 262kts
27-Mar-17 20:16 35.533546 -112.104930 330 9802ft 237kts
27-Mar-17 20:17 35.598298 -112.145509 330 9160ft 214kts
27-Mar-17 20:18 35.650098 -112.178780 330 9122ft 211kts
27-Mar-17 20:19 35.691903 -112.206010 330 9116ft 199kts
27-Mar-17 20:20 35.746178 -112.241412 330 9121ft 182kts
27-Mar-17 20:21 35.784601 -112.258081 340 8318ft 174kts
27-Mar-17 20:22 35.833103 -112.265242 0 8283ft 180kts
27-Mar-17 20:23 35.877792 -112.225544 34 8255ft 167kts
27-Mar-17 20:24 35.906749 -112.195067 35 7525ft 163kts
27-Mar-17 20:25 35.940768 -112.159182 35 6671ft 160kts
27-Mar-17 20:26 35.960431 -112.138438 37 6633ft 19kts
27-Mar-17 20:27 35.961084 -112.136348 130 6637ft 11kts
27-Mar-17 20:28 35.959199 -112.137609 198 6633ft 2kts
27-Mar-17 20:29 35.958590 -112.137708 209 6634ft 0kts
27-Mar-17 20:30 35.958590 -112.137708 209 6634ft 0kts

Navigation Log

Ident Type
Flight plan parsing failed, navigation log unavailable